Time;durP1;ratioP1;P1;durP2;ratioP2;P2;SDS_P1;SDS_P2;PMS_P1;PMS_P2;Temp;Humidity;BMP_temperature;BMP_pressure;BME280_temperature;BME280_humidity;BME280_pressure;Samples;Min_cycle;Max_cycle;Signal;HPM_P1;HPM_P2
2023/07/02 00:00:21;;;;;;;16.27;9.40;;;;;;;19.67;100.00;97761.53;4484036;31;20537;-65
2023/07/02 00:02:48;;;;;;;14.27;9.20;;;;;;;19.61;100.00;97765.09;4484331;31;20150;-65
2023/07/02 00:05:17;;;;;;;16.62;10.07;;;;;;;19.57;100.00;97769.19;4484080;31;20084;-65
2023/07/02 00:07:44;;;;;;;17.80;9.55;;;;;;;19.50;100.00;97771.94;4483905;31;20591;-65
2023/07/02 00:10:12;;;;;;;13.75;9.23;;;;;;;19.57;100.00;97763.09;4483968;32;20530;-65
2023/07/02 00:12:39;;;;;;;14.90;9.40;;;;;;;19.52;100.00;97765.59;4483715;32;20506;-65
2023/07/02 00:15:06;;;;;;;17.30;9.75;;;;;;;19.53;100.00;97769.88;4483994;31;20097;-65
2023/07/02 00:17:33;;;;;;;15.93;9.50;;;;;;;19.51;100.00;97764.78;4483828;31;20101;-65
2023/07/02 00:20:08;;;;;;;15.05;10.05;;;;;;;19.53;100.00;97772.53;4483824;32;20476;-65
2023/07/02 00:22:36;;;;;;;17.05;9.18;;;;;;;19.47;100.00;97763.56;4483892;31;20575;-65
2023/07/02 00:25:04;;;;;;;15.27;9.35;;;;;;;19.46;100.00;97762.78;4483675;31;20154;-65
2023/07/02 00:27:31;;;;;;;16.17;9.30;;;;;;;19.41;100.00;97764.47;4483727;31;20109;-65
2023/07/02 00:29:58;;;;;;;13.80;9.13;;;;;;;19.48;100.00;97766.00;4483769;32;20118;-65
2023/07/02 00:32:26;;;;;;;15.38;9.85;;;;;;;19.54;100.00;97772.31;4483689;31;20081;-65
2023/07/02 00:34:54;;;;;;;16.33;9.50;;;;;;;19.50;100.00;97763.16;4483629;31;20088;-65
2023/07/02 00:37:21;;;;;;;17.52;9.38;;;;;;;19.47;100.00;97764.41;4483632;31;20089;-65
2023/07/02 00:39:49;;;;;;;14.75;9.13;;;;;;;19.46;100.00;97767.28;4485577;31;20119;-65
2023/07/02 00:42:16;;;;;;;18.17;9.98;;;;;;;19.43;100.00;97762.41;4485964;31;20096;-65
2023/07/02 00:44:45;;;;;;;17.05;8.95;;;;;;;19.35;100.00;97768.00;4486134;31;20537;-65
2023/07/02 00:47:13;;;;;;;13.60;8.00;;;;;;;19.38;100.00;97765.72;4485943;31;20119;-65
2023/07/02 00:49:40;;;;;;;15.02;9.18;;;;;;;19.38;100.00;97765.72;4485749;31;20100;-65
2023/07/02 00:52:07;;;;;;;19.10;9.77;;;;;;;19.22;100.00;97761.78;4485812;32;20139;-65
2023/07/02 00:54:36;;;;;;;14.82;8.35;;;;;;;19.24;100.00;97756.25;4485850;31;20092;-65
2023/07/02 00:57:05;;;;;;;14.73;8.23;;;;;;;19.24;100.00;97764.22;4485911;32;20417;-65
2023/07/02 00:59:35;;;;;;;14.95;8.38;;;;;;;19.19;100.00;97762.22;4484697;32;20108;-65
2023/07/02 01:02:03;;;;;;;18.48;8.88;;;;;;;19.22;100.00;97758.31;4485751;31;20092;-65
2023/07/02 01:04:31;;;;;;;12.82;8.35;;;;;;;19.20;100.00;97758.53;4485795;31;20092;-65
2023/07/02 01:06:58;;;;;;;14.93;8.25;;;;;;;19.19;100.00;97762.22;4485671;32;20136;-65
2023/07/02 01:09:26;;;;;;;14.65;8.85;;;;;;;19.25;100.00;97765.84;4485639;32;20084;-65
2023/07/02 01:11:59;;;;;;;14.25;8.27;;;;;;;19.22;100.00;97760.97;4485739;31;20170;-65
2023/07/02 01:14:33;;;;;;;15.40;8.57;;;;;;;19.24;100.00;97759.72;4484310;32;20122;-65
2023/07/02 01:17:03;;;;;;;15.05;8.40;;;;;;;19.23;100.00;97755.44;4484746;32;20100;-65
2023/07/02 01:19:42;;;;;;;15.90;8.45;;;;;;;19.18;100.00;97752.59;4485541;32;20500;-65
2023/07/02 01:22:11;;;;;;;14.95;8.45;;;;;;;19.23;100.00;97760.75;4485943;31;20092;-65
2023/07/02 01:24:39;;;;;;;13.75;8.48;;;;;;;19.18;100.00;97771.19;4485610;31;20438;-65
2023/07/02 01:27:07;;;;;;;16.75;8.25;;;;;;;19.23;100.00;97766.06;4485785;31;20111;-65
2023/07/02 01:29:38;;;;;;;15.60;8.32;;;;;;;19.32;100.00;97756.78;4485769;31;20084;-65
2023/07/02 01:32:06;;;;;;;15.15;8.50;;;;;;;19.28;100.00;97760.09;4485811;32;20111;-65
2023/07/02 01:34:33;;;;;;;15.63;9.02;;;;;;;19.21;100.00;97762.00;4485592;32;20453;-65
2023/07/02 01:37:01;;;;;;;12.02;8.50;;;;;;;19.23;100.00;97752.78;4484288;32;20139;-65
2023/07/02 01:39:30;;;;;;;14.48;7.65;;;;;;;19.23;100.00;97763.41;4485643;32;20153;-65
2023/07/02 01:42:27;;;;;;;13.80;7.68;;;;;;;19.25;100.00;97766.66;4485634;31;20453;-65
2023/07/02 01:44:55;;;;;;;14.00;7.97;;;;;;;19.24;100.00;97765.03;4436666;32;20147;-65
2023/07/02 01:47:22;;;;;;;12.27;7.65;;;;;;;19.29;100.00;97767.03;4436453;32;20120;-65
2023/07/02 01:49:50;;;;;;;11.18;7.55;;;;;;;19.35;100.00;97758.19;4435437;32;20097;-65
2023/07/02 01:52:21;;;;;;;13.93;8.35;;;;;;;19.31;100.00;97762.31;4436200;32;20116;-65
2023/07/02 01:54:49;;;;;;;13.45;7.87;;;;;;;19.25;100.00;97764.00;4436202;32;20577;-65
2023/07/02 01:57:16;;;;;;;13.40;8.32;;;;;;;19.21;100.00;97778.72;4436241;32;20110;-65
2023/07/02 01:59:44;;;;;;;13.93;8.00;;;;;;;19.22;100.00;97772.38;4436246;32;20155;-65
2023/07/02 02:02:11;;;;;;;17.58;7.97;;;;;;;19.18;100.00;97771.19;4436312;32;20580;-65
2023/07/02 02:04:38;;;;;;;10.80;7.43;;;;;;;19.16;100.00;97773.25;4436088;32;20108;-65
2023/07/02 02:07:05;;;;;;;12.02;7.30;;;;;;;19.16;100.00;97767.94;4436206;32;20853;-65
2023/07/02 02:09:32;;;;;;;13.62;7.57;;;;;;;19.06;100.00;97764.97;4436264;32;20110;-65
2023/07/02 02:12:00;;;;;;;10.30;6.40;;;;;;;19.13;100.00;97763.06;4436100;32;20176;-64
2023/07/02 02:14:27;;;;;;;11.07;6.80;;;;;;;19.06;100.00;97762.31;4436035;32;20120;-65
2023/07/02 02:16:54;;;;;;;12.05;7.60;;;;;;;19.11;100.00;97762.50;4436250;32;20159;-65
2023/07/02 02:19:23;;;;;;;12.60;6.53;;;;;;;19.07;100.00;97753.31;4436053;32;20404;-65
2023/07/02 02:21:50;;;;;;;9.60;6.45;;;;;;;19.07;100.00;97756.78;4469877;32;20096;-65
2023/07/02 02:24:17;;;;;;;9.73;6.68;;;;;;;19.08;100.00;97760.28;4485231;31;20533;-65
2023/07/02 02:26:46;;;;;;;14.13;7.65;;;;;;;19.01;100.00;97754.19;4485423;31;20487;-65
2023/07/02 02:29:14;;;;;;;11.23;6.72;;;;;;;19.02;100.00;97758.47;4485175;31;20366;-65
2023/07/02 02:31:43;;;;;;;10.65;6.30;;;;;;;19.04;100.00;97751.09;4485477;31;20139;-65
2023/07/02 02:34:10;;;;;;;9.20;5.93;;;;;;;19.01;100.00;97760.31;4485106;31;20111;-65
2023/07/02 02:36:37;;;;;;;13.45;6.87;;;;;;;18.99;100.00;97750.94;4485079;31;20521;-65
2023/07/02 02:39:04;;;;;;;13.50;6.30;;;;;;;18.99;100.00;97745.66;4485122;31;20118;-65
2023/07/02 02:41:32;;;;;;;14.63;6.65;;;;;;;19.00;100.00;97748.09;4485196;32;20149;-65
2023/07/02 02:43:59;;;;;;;12.60;6.90;;;;;;;19.08;100.00;97747.00;4485324;31;20433;-65
2023/07/02 02:46:26;;;;;;;10.60;6.50;;;;;;;19.08;100.00;97750.44;4485315;31;20089;-65
2023/07/02 02:48:53;;;;;;;10.27;5.93;;;;;;;19.03;100.00;97746.81;4485228;31;20089;-65
2023/07/02 02:51:20;;;;;;;10.98;6.15;;;;;;;19.04;100.00;97745.78;4485288;32;20088;-65
2023/07/02 02:53:49;;;;;;;10.23;6.00;;;;;;;19.07;100.00;97748.03;4485172;31;20470;-65
2023/07/02 02:56:16;;;;;;;9.30;5.82;;;;;;;19.10;100.00;97739.63;4484973;31;20206;-65
2023/07/02 02:58:43;;;;;;;9.13;6.00;;;;;;;19.10;100.00;97740.41;4485140;31;20122;-65
2023/07/02 03:01:11;;;;;;;10.30;5.93;;;;;;;19.05;100.00;97742.12;4485251;31;20120;-65
2023/07/02 03:03:44;;;;;;;11.55;6.28;;;;;;;19.14;100.00;97738.16;4485031;31;20119;-65
2023/07/02 03:06:14;;;;;;;8.70;5.80;;;;;;;19.08;100.00;97744.34;4484981;31;20093;-65
2023/07/02 03:08:42;;;;;;;9.77;5.72;;;;;;;18.93;100.00;97749.97;4484975;32;20144;-65
2023/07/02 03:11:10;;;;;;;9.68;6.18;;;;;;;18.89;100.00;97757.53;4484846;31;20123;-65
2023/07/02 03:13:38;;;;;;;9.45;5.72;;;;;;;18.94;100.00;97741.78;4485052;31;20476;-65
2023/07/02 03:16:06;;;;;;;10.10;5.93;;;;;;;18.89;100.00;97752.22;4484790;32;20100;-65
2023/07/02 03:18:33;;;;;;;9.57;5.87;;;;;;;18.92;100.00;97756.28;4484936;31;20187;-65
2023/07/02 03:21:02;;;;;;;17.90;7.03;;;;;;;18.87;100.00;97750.84;4484710;31;20565;-65
2023/07/02 03:23:29;;;;;;;7.62;5.47;;;;;;;18.87;100.00;97751.63;4484952;32;20437;-65
2023/07/02 03:25:56;;;;;;;11.27;6.40;;;;;;;18.87;100.00;97750.84;4484647;31;20097;-65
2023/07/02 03:28:24;;;;;;;12.48;6.93;;;;;;;18.87;100.00;97748.19;4483688;32;20123;-65
2023/07/02 03:30:52;;;;;;;12.60;6.00;;;;;;;18.91;100.00;97758.16;4484580;31;20593;-65
2023/07/02 03:33:19;;;;;;;13.13;6.50;;;;;;;18.93;100.00;97756.09;4484888;31;20148;-65
2023/07/02 03:35:46;;;;;;;8.98;6.18;;;;;;;18.86;100.00;97752.66;4484486;31;20115;-65
2023/07/02 03:38:14;;;;;;;12.05;6.07;;;;;;;18.86;100.00;97751.84;4484727;31;20153;-65
2023/07/02 03:40:42;;;;;;;9.32;5.85;;;;;;;18.86;100.00;97762.47;4484312;32;20092;-65
2023/07/02 03:43:10;;;;;;;12.15;6.70;;;;;;;18.89;100.00;97760.19;4484575;32;20551;-65
2023/07/02 03:45:38;;;;;;;10.13;5.87;;;;;;;18.93;100.00;97763.25;4484466;31;20151;-65
2023/07/02 03:48:05;;;;;;;8.55;5.18;;;;;;;18.91;100.00;97760.81;4484315;31;20084;-65
2023/07/02 03:50:33;;;;;;;16.95;4.97;;;;;;;18.98;100.00;97771.34;4484254;31;20091;-65
2023/07/02 03:53:00;;;;;;;9.90;5.57;;;;;;;19.02;100.00;97769.09;4484257;31;20095;-65
2023/07/02 03:55:27;;;;;;;12.32;5.18;;;;;;;19.03;100.00;97763.56;4484336;32;20084;-65
2023/07/02 03:57:55;;;;;;;7.65;4.80;;;;;;;19.06;100.00;97762.31;4484096;31;20123;-65
2023/07/02 04:00:23;;;;;;;9.77;5.03;;;;;;;19.11;100.00;97765.94;4484183;31;20096;-65
2023/07/02 04:02:51;;;;;;;9.10;5.12;;;;;;;19.26;100.00;97757.66;4484168;31;20096;-64
2023/07/02 04:05:20;;;;;;;7.72;4.68;;;;;;;19.24;100.00;97767.69;4482608;32;20101;-64
2023/07/02 04:07:48;;;;;;;11.60;5.20;;;;;;;19.27;100.00;97769.91;4484130;32;20451;-65
2023/07/02 04:10:15;;;;;;;7.20;4.43;;;;;;;19.26;100.00;97770.13;4483814;32;20450;-65
2023/07/02 04:12:42;;;;;;;10.07;4.53;;;;;;;19.26;100.00;97775.44;4483885;31;20103;-64
2023/07/02 04:15:10;;;;;;;9.98;4.95;;;;;;;19.35;100.00;97778.59;4485948;31;20477;-65
2023/07/02 04:17:37;;;;;;;6.55;4.28;;;;;;;19.37;100.00;97780.03;4485992;31;20425;-65
2023/07/02 04:20:06;;;;;;;7.93;4.20;;;;;;;19.42;100.00;97779.38;4486238;31;20110;-65
2023/07/02 04:22:34;;;;;;;7.72;4.28;;;;;;;19.50;100.00;97784.41;4486036;31;20108;-65
2023/07/02 04:25:01;;;;;;;7.28;4.45;;;;;;;19.55;100.00;97778.44;4486207;31;20092;-65
2023/07/02 04:27:40;;;;;;;6.78;4.53;;;;;;;19.54;100.00;97779.47;4486176;31;20139;-65
2023/07/02 04:30:17;;;;;;;8.57;4.10;;;;;;;19.57;100.00;97790.47;4486228;31;20072;-65
2023/07/02 04:32:45;;;;;;;7.85;4.18;;;;;;;19.61;100.00;97791.66;4486074;31;20096;-65
2023/07/02 04:35:13;;;;;;;8.35;4.25;;;;;;;19.72;100.00;97790.13;4485905;31;20177;-65
2023/07/02 04:37:40;;;;;;;7.18;4.22;;;;;;;19.80;99.68;97791.69;4485968;31;20104;-65
2023/07/02 04:40:09;;;;;;;8.00;3.97;;;;;;;19.85;98.77;97787.34;4484415;32;20084;-65
2023/07/02 04:42:38;;;;;;;6.97;3.75;;;;;;;19.91;98.93;97795.47;4486395;31;20076;-65
2023/07/02 04:45:08;;;;;;;7.75;4.18;;;;;;;20.13;97.17;97798.50;4486016;32;20096;-65
2023/07/02 04:47:36;;;;;;;8.27;4.28;;;;;;;20.19;96.89;97801.06;4485924;31;20442;-65
2023/07/02 04:50:05;;;;;;;5.70;4.30;;;;;;;20.28;96.28;97798.13;4485610;32;20172;-65
2023/07/02 04:52:33;;;;;;;9.75;4.32;;;;;;;20.45;94.95;97804.44;4485845;31;20145;-65
2023/07/02 04:55:02;;;;;;;5.90;3.60;;;;;;;20.56;94.37;97813.53;4485839;31;20093;-65
2023/07/02 04:57:29;;;;;;;9.30;3.75;;;;;;;20.52;94.14;97812.34;4485951;32;20164;-65
2023/07/02 04:59:57;;;;;;;7.50;3.92;;;;;;;20.39;94.89;97818.63;4486136;31;20088;-65
2023/07/02 05:02:24;;;;;;;7.03;3.87;;;;;;;20.45;94.85;97828.37;4485841;31;20084;-65
2023/07/02 05:04:53;;;;;;;9.82;4.53;;;;;;;20.34;95.25;97827.28;4485797;32;20101;-65
2023/07/02 05:07:21;;;;;;;7.60;4.20;;;;;;;20.45;95.29;97830.22;4485979;31;20088;-65
2023/07/02 05:09:49;;;;;;;6.07;3.80;;;;;;;20.36;95.68;97822.56;4485853;31;20104;-65
2023/07/02 05:12:17;;;;;;;5.00;4.03;;;;;;;20.47;95.17;97830.81;4486019;31;20083;-65
2023/07/02 05:14:46;;;;;;;6.55;4.00;;;;;;;20.43;95.22;97819.81;4485764;31;20130;-65
2023/07/02 05:17:14;;;;;;;6.40;3.67;;;;;;;20.53;94.57;97840.56;4485816;31;20092;-65
2023/07/02 05:19:42;;;;;;;9.55;4.30;;;;;;;20.45;93.89;97835.56;4485726;31;20134;-65
2023/07/02 05:22:10;;;;;;;5.85;4.20;;;;;;;20.65;94.01;97844.13;4485587;32;20503;-65
2023/07/02 05:24:37;;;;;;;7.53;4.03;;;;;;;20.70;92.92;97836.28;4484899;31;20096;-65
2023/07/02 05:27:05;;;;;;;11.88;4.60;;;;;;;20.72;93.16;97842.19;4485508;32;20092;-65
2023/07/02 05:29:32;;;;;;;6.30;4.22;;;;;;;20.76;92.12;97845.22;4485388;32;20155;-65
2023/07/02 05:32:00;;;;;;;4.45;3.42;;;;;;;20.94;91.77;97843.53;4484194;32;20105;-65
2023/07/02 05:34:27;;;;;;;5.70;3.83;;;;;;;20.80;92.83;97841.03;4485519;32;20112;-65
2023/07/02 05:36:55;;;;;;;7.95;4.37;;;;;;;20.68;93.82;97849.00;4485596;32;20088;-65
2023/07/02 05:39:22;;;;;;;7.60;3.87;;;;;;;20.77;94.45;97851.34;4485621;32;20533;-65
2023/07/02 05:41:50;;;;;;;6.12;4.10;;;;;;;20.91;93.64;97850.94;4485269;31;20087;-65
2023/07/02 05:44:18;;;;;;;6.50;3.95;;;;;;;20.87;93.27;97846.28;4485693;31;20116;-65
2023/07/02 05:46:46;;;;;;;7.60;4.03;;;;;;;21.03;91.67;97850.97;4485471;31;20084;-65
2023/07/02 05:49:13;;;;;;;7.95;4.20;;;;;;;21.05;92.11;97851.56;4485285;31;20096;-65
2023/07/02 05:51:40;;;;;;;9.93;3.78;;;;;;;20.95;91.85;97850.47;4485232;31;20096;-65
2023/07/02 05:54:09;;;;;;;5.45;3.85;;;;;;;21.00;91.11;97853.28;4485350;31;20113;-65
2023/07/02 05:56:36;;;;;;;5.28;3.67;;;;;;;21.17;90.76;97848.94;4485416;31;20121;-65
2023/07/02 05:59:04;;;;;;;6.78;3.72;;;;;;;21.01;91.26;97857.56;4485426;32;20191;-65
2023/07/02 06:01:32;;;;;;;7.28;3.80;;;;;;;21.35;89.76;97853.38;4485275;31;20499;-65
2023/07/02 06:04:00;;;;;;;7.30;4.00;;;;;;;21.31;88.99;97862.03;4485398;32;20097;-65
2023/07/02 06:06:28;;;;;;;5.12;3.75;;;;;;;21.43;88.57;97869.00;4485497;32;20173;-65
2023/07/02 06:08:55;;;;;;;5.47;3.72;;;;;;;21.56;88.53;97861.88;4485430;31;20108;-65
2023/07/02 06:11:22;;;;;;;4.57;3.25;;;;;;;21.66;88.65;97864.78;4485414;32;20139;-65
2023/07/02 06:13:50;;;;;;;5.62;3.62;;;;;;;21.83;87.57;97869.41;4485107;32;20100;-65
2023/07/02 06:16:17;;;;;;;8.55;3.90;;;;;;;21.92;87.39;97862.69;4485277;31;20097;-65
2023/07/02 06:18:45;;;;;;;6.22;3.47;;;;;;;21.93;86.89;97861.66;4485158;31;20118;-65
2023/07/02 06:21:14;;;;;;;8.15;3.83;;;;;;;22.01;86.39;97876.47;4485263;31;20100;-65
2023/07/02 06:23:44;;;;;;;7.43;4.32;;;;;;;22.00;86.56;97873.03;4485249;31;20104;-65
2023/07/02 06:26:13;;;;;;;6.78;3.70;;;;;;;21.99;85.33;97874.06;4485211;32;20475;-65
2023/07/02 06:28:40;;;;;;;5.93;3.72;;;;;;;21.78;86.76;97878.91;4485222;31;20462;-65
2023/07/02 06:31:07;;;;;;;7.65;3.80;;;;;;;21.95;85.83;97875.56;4485150;32;20091;-65
2023/07/02 06:33:38;;;;;;;5.43;3.12;;;;;;;22.13;85.92;97880.78;4485193;32;20128;-65
2023/07/02 06:36:05;;;;;;;5.10;3.17;;;;;;;22.20;86.19;97880.66;4484831;31;20139;-65
2023/07/02 06:38:32;;;;;;;5.78;3.30;;;;;;;22.40;85.38;97890.97;4482071;31;20757;-65
2023/07/02 06:41:00;;;;;;;7.18;3.33;;;;;;;22.42;84.76;97888.88;4477042;32;20108;-65
2023/07/02 06:43:27;;;;;;;6.57;3.35;;;;;;;22.43;85.18;97890.47;4485021;32;20085;-65
2023/07/02 06:45:54;;;;;;;5.60;4.00;;;;;;;22.39;85.21;97897.37;4485108;31;20104;-65
2023/07/02 06:48:21;;;;;;;7.03;3.72;;;;;;;22.44;86.03;97892.13;4484904;32;20080;-65
2023/07/02 06:50:48;;;;;;;7.05;3.75;;;;;;;22.55;86.48;97895.81;4483866;32;20468;-65
2023/07/02 06:53:17;;;;;;;6.37;3.62;;;;;;;22.47;86.05;97896.97;4485012;31;20096;-65
2023/07/02 06:55:44;;;;;;;6.53;4.00;;;;;;;22.48;86.76;97898.63;4485100;31;20119;-65
2023/07/02 06:58:11;;;;;;;5.10;3.65;;;;;;;22.72;86.38;97903.06;4484981;31;20092;-65
2023/07/02 07:00:39;;;;;;;7.40;3.65;;;;;;;22.70;85.38;97900.62;4485022;31;20096;-65
2023/07/02 07:03:06;;;;;;;5.47;3.53;;;;;;;22.98;84.99;97907.84;4484859;31;20104;-65
2023/07/02 07:05:34;;;;;;;5.80;3.50;;;;;;;23.26;83.52;97906.25;4485271;31;20589;-65
2023/07/02 07:08:01;;;;;;;3.62;3.03;;;;;;;23.44;81.20;97915.91;4484713;31;20100;-65
2023/07/02 07:10:33;;;;;;;4.45;2.97;;;;;;;23.52;81.67;97912.03;4484713;31;20145;-65
2023/07/02 07:13:02;;;;;;;4.00;2.97;;;;;;;23.47;77.91;97915.41;4484606;31;20108;-65
2023/07/02 07:15:34;;;;;;;5.20;2.60;;;;;;;23.39;74.05;97913.13;4484815;31;20092;-65
2023/07/02 07:18:01;;;;;;;5.57;2.97;;;;;;;23.48;73.49;97911.69;4484728;31;20137;-65
2023/07/02 07:20:31;;;;;;;3.42;2.35;;;;;;;23.38;74.57;97917.66;4484751;31;20148;-65
2023/07/02 07:22:58;;;;;;;3.22;2.62;;;;;;;23.41;73.87;97931.59;4484589;31;20092;-65
2023/07/02 07:25:26;;;;;;;5.05;2.70;;;;;;;23.99;73.93;97926.94;4484956;31;20101;-65
2023/07/02 07:27:53;;;;;;;4.85;2.90;;;;;;;24.29;71.17;97925.78;4484559;31;20092;-65
2023/07/02 07:30:24;;;;;;;4.35;2.70;;;;;;;24.53;70.06;97918.34;4484595;31;20099;-65
2023/07/02 07:32:52;;;;;;;4.12;2.80;;;;;;;24.67;70.74;97922.28;4484248;31;20088;-65
2023/07/02 07:35:21;;;;;;;4.40;3.20;;;;;;;25.56;66.90;97920.25;4484455;31;20100;-65
2023/07/02 07:37:49;;;;;;;3.03;2.53;;;;;;;25.76;64.31;97921.47;4484414;31;20440;-65
2023/07/02 07:40:17;;;;;;;3.92;2.87;;;;;;;26.15;63.54;97929.31;4484285;31;20645;-65
2023/07/02 07:42:44;;;;;;;4.00;2.87;;;;;;;26.12;61.98;97924.44;4484374;31;20105;-65
2023/07/02 07:45:12;;;;;;;5.70;2.75;;;;;;;26.46;60.42;97924.88;4484203;32;20374;-65
2023/07/02 07:47:39;;;;;;;9.25;3.10;;;;;;;26.18;61.25;97932.25;4484299;31;20087;-65
2023/07/02 07:50:11;;;;;;;5.47;3.20;;;;;;;26.34;61.47;97935.84;4486115;31;20084;-65
2023/07/02 07:52:39;;;;;;;4.18;2.75;;;;;;;26.32;62.34;97940.66;4486272;31;20110;-65
2023/07/02 07:55:07;;;;;;;3.67;3.10;;;;;;;26.24;62.15;97933.09;4486140;31;20157;-65
2023/07/02 07:57:36;;;;;;;4.65;3.47;;;;;;;26.15;62.81;97945.41;4486144;31;20092;-65
2023/07/02 08:00:07;;;;;;;5.05;3.00;;;;;;;26.05;62.43;97950.69;4486184;31;20165;-65
2023/07/02 08:02:49;;;;;;;10.63;3.20;;;;;;;25.84;64.14;97945.97;4486240;31;20089;-65
2023/07/02 08:05:16;;;;;;;5.18;2.83;;;;;;;25.39;63.95;97957.09;4486191;31;20127;-65
2023/07/02 08:07:43;;;;;;;4.60;3.05;;;;;;;25.15;64.21;97960.06;4486104;32;20148;-65
2023/07/02 08:10:10;;;;;;;7.18;3.10;;;;;;;25.01;65.33;97964.19;4486148;32;20132;-65
2023/07/02 08:12:38;;;;;;;4.00;2.92;;;;;;;24.92;65.33;97961.94;4486232;31;20142;-65
2023/07/02 08:15:05;;;;;;;4.18;2.87;;;;;;;24.74;64.99;97968.44;4486313;32;20097;-65
2023/07/02 08:17:33;;;;;;;5.37;2.87;;;;;;;24.87;65.51;97974.47;4486083;31;20462;-65
2023/07/02 08:20:00;;;;;;;5.57;2.95;;;;;;;24.95;65.49;97972.16;4486198;31;20084;-65
2023/07/02 08:22:29;;;;;;;7.05;3.03;;;;;;;24.70;65.54;97971.84;4485989;31;20093;-65
2023/07/02 08:24:56;;;;;;;6.20;2.97;;;;;;;24.78;65.70;97976.78;4486233;32;20584;-65
2023/07/02 08:27:25;;;;;;;4.53;3.05;;;;;;;24.64;65.73;97976.34;4486093;31;20108;-65
2023/07/02 08:29:53;;;;;;;4.37;3.00;;;;;;;24.42;66.79;97973.59;4486130;31;20084;-65
2023/07/02 08:32:20;;;;;;;4.32;3.05;;;;;;;24.48;67.03;97977.16;4486069;32;20097;-65
2023/07/02 08:34:48;;;;;;;6.40;3.05;;;;;;;24.25;66.73;97968.25;4486007;31;20100;-65
2023/07/02 08:37:15;;;;;;;9.18;3.08;;;;;;;24.24;67.48;97977.38;4486046;32;20100;-65
2023/07/02 08:39:43;;;;;;;4.93;3.30;;;;;;;24.44;66.66;97974.16;4486011;31;20080;-65
2023/07/02 08:42:11;;;;;;;4.18;3.22;;;;;;;24.46;65.69;97980.06;4485971;31;20104;-65
2023/07/02 08:44:39;;;;;;;5.03;3.28;;;;;;;24.60;64.32;97976.03;4486002;31;20097;-65
2023/07/02 08:47:07;;;;;;;7.70;2.90;;;;;;;24.49;65.66;97984.94;4485715;32;20139;-65
2023/07/02 08:49:35;;;;;;;10.23;3.50;;;;;;;24.54;67.13;97976.16;4485885;32;20539;-65
2023/07/02 08:52:03;;;;;;;6.18;3.17;;;;;;;24.91;66.32;97964.88;4485992;31;20123;-65
2023/07/02 08:54:30;;;;;;;4.22;2.90;;;;;;;25.32;63.11;97982.25;4485904;31;20107;-65
2023/07/02 08:56:58;;;;;;;5.43;3.22;;;;;;;25.41;61.50;97968.41;4484652;32;20122;-65
2023/07/02 08:59:26;;;;;;;5.18;3.25;;;;;;;25.73;61.37;97975.66;4485720;31;20092;-65
2023/07/02 09:01:53;;;;;;;4.95;3.20;;;;;;;25.77;60.08;97977.56;4485883;31;20120;-65
2023/07/02 09:04:24;;;;;;;10.13;3.10;;;;;;;25.85;60.84;97976.28;4485726;31;20100;-65
2023/07/02 09:07:03;;;;;;;4.72;3.03;;;;;;;25.88;61.58;97973.09;4485923;31;20466;-65
2023/07/02 09:09:32;;;;;;;4.12;3.10;;;;;;;26.44;63.47;97980.75;4485758;32;20114;-65
2023/07/02 09:12:00;;;;;;;3.72;3.12;;;;;;;26.83;59.93;97979.59;4485595;31;20092;-65
2023/07/02 09:14:29;;;;;;;7.40;3.55;;;;;;;26.78;58.10;97979.59;4485671;31;20127;-65
2023/07/02 09:17:03;;;;;;;4.28;3.05;;;;;;;26.56;57.03;97975.97;4485717;31;20592;-65
2023/07/02 09:19:30;;;;;;;5.20;3.47;;;;;;;26.55;58.21;97976.25;4485965;31;20128;-65
2023/07/02 09:22:01;;;;;;;6.22;3.60;;;;;;;26.31;58.01;97976.63;4485853;31;20432;-65
2023/07/02 09:24:31;;;;;;;6.68;3.28;;;;;;;26.18;59.05;97971.75;4485722;31;20115;-65
2023/07/02 09:27:01;;;;;;;7.50;3.33;;;;;;;26.13;59.87;97979.72;4485753;31;20111;-65
2023/07/02 09:29:33;;;;;;;7.18;3.67;;;;;;;26.17;60.55;97978.16;4485554;31;20538;-65
2023/07/02 09:32:07;;;;;;;5.90;3.45;;;;;;;26.23;57.78;97985.19;4485801;31;20120;-65
2023/07/02 09:34:40;;;;;;;6.12;3.40;;;;;;;26.67;58.23;97984.91;4485519;31;20106;-65
2023/07/02 09:37:09;;;;;;;4.75;3.30;;;;;;;26.46;56.47;97983.19;4485505;31;20495;-65
2023/07/02 09:39:38;;;;;;;6.68;3.22;;;;;;;26.50;56.81;97981.59;4485336;31;20478;-65
2023/07/02 09:42:07;;;;;;;5.03;3.30;;;;;;;26.69;57.95;97982.81;4485585;31;20096;-65
2023/07/02 09:44:35;;;;;;;4.68;3.20;;;;;;;26.72;57.00;97989.50;4485366;31;20093;-65
2023/07/02 09:47:05;;;;;;;5.18;3.15;;;;;;;26.80;57.93;97980.13;4485775;31;20478;-65
2023/07/02 09:49:35;;;;;;;5.35;3.15;;;;;;;26.92;57.57;97980.75;4485334;31;20088;-65
2023/07/02 09:52:05;;;;;;;6.65;3.15;;;;;;;26.74;56.29;97980.13;4485433;31;20431;-65
2023/07/02 09:54:33;;;;;;;7.75;3.65;;;;;;;26.87;57.13;97986.09;4485495;31;20236;-65
2023/07/02 09:57:02;;;;;;;6.82;2.78;;;;;;;26.98;57.34;97978.88;4485218;31;20159;-65
2023/07/02 09:59:30;;;;;;;5.68;3.08;;;;;;;26.94;56.73;97981.28;4484227;32;20088;-65
2023/07/02 10:01:59;;;;;;;5.68;3.30;;;;;;;26.94;56.63;97978.59;4485416;31;20097;-65
2023/07/02 10:04:27;;;;;;;6.25;3.75;;;;;;;26.92;55.64;97989.59;4485361;31;20096;-65
2023/07/02 10:06:57;;;;;;;5.12;3.00;;;;;;;26.69;56.26;97993.53;4485481;32;20105;-65
2023/07/02 10:09:36;;;;;;;4.93;2.90;;;;;;;26.50;56.51;97995.03;4485272;31;20491;-65
2023/07/02 10:12:28;;;;;;;4.30;2.75;;;;;;;26.58;57.84;97991.84;4484732;32;20446;-65
2023/07/02 10:14:58;;;;;;;5.75;3.33;;;;;;;26.62;58.34;97995.63;4476930;32;20173;-65
2023/07/02 10:17:31;;;;;;;7.40;3.45;;;;;;;26.72;58.80;97993.03;4485131;31;20096;-65
2023/07/02 10:20:11;;;;;;;;;;;;;;;26.98;57.44;97985.06;4485794;31;20510;-65
2023/07/02 10:22:47;;;;;;;3.55;2.85;;;;;;;26.93;56.74;97985.03;4485623;31;19995;-65
2023/07/02 10:25:28;;;;;;;5.25;3.12;;;;;;;27.12;56.43;97984.53;4485349;31;20107;-65
2023/07/02 10:27:56;;;;;;;6.22;2.90;;;;;;;27.20;55.27;97987.53;4485276;31;20081;-65
2023/07/02 10:30:33;;;;;;;6.32;3.08;;;;;;;27.13;55.62;97992.34;4485202;31;20088;-65
2023/07/02 10:33:17;;;;;;;11.00;3.05;;;;;;;27.00;55.27;97982.91;4485259;31;20092;-65
2023/07/02 10:35:47;;;;;;;4.93;3.17;;;;;;;27.10;54.91;97984.81;4485078;31;20092;-65
2023/07/02 10:38:22;;;;;;;5.32;3.03;;;;;;;27.11;55.66;97985.62;4485093;31;20084;-65
2023/07/02 10:40:57;;;;;;;4.12;3.10;;;;;;;27.44;54.91;97977.12;4485166;31;20099;-65
2023/07/02 10:43:28;;;;;;;6.82;2.70;;;;;;;27.64;55.40;97990.88;4485194;31;20163;-65
2023/07/02 10:46:01;;;;;;;3.95;2.95;;;;;;;27.71;54.77;97976.09;4485179;32;20480;-65
2023/07/02 10:48:29;;;;;;;3.78;2.90;;;;;;;28.04;52.76;97987.44;4484853;31;20135;-65
2023/07/02 10:50:57;;;;;;;5.22;3.00;;;;;;;27.93;53.89;97983.91;4485213;32;20092;-65
2023/07/02 10:53:25;;;;;;;3.55;2.80;;;;;;;27.62;53.61;97980.41;4485047;31;20092;-65
2023/07/02 10:55:55;;;;;;;3.75;3.15;;;;;;;27.93;53.33;97977.69;4484992;31;20100;-65
2023/07/02 10:58:24;;;;;;;4.53;2.92;;;;;;;28.10;53.19;97978.28;4484949;31;20105;-65
2023/07/02 11:00:51;;;;;;;4.37;3.08;;;;;;;28.28;52.47;97979.59;4484855;31;20102;-65
2023/07/02 11:03:25;;;;;;;4.40;2.78;;;;;;;28.09;52.60;97990.09;4484969;31;20634;-65
2023/07/02 11:05:53;;;;;;;;;;;;;;;28.00;51.50;97978.28;4485109;31;20088;-65
2023/07/02 11:08:23;;;;;;;5.70;3.10;;;;;;;27.68;51.23;97981.22;4483757;32;20000;-65
2023/07/02 11:10:50;;;;;;;6.15;3.37;;;;;;;27.68;50.58;97976.63;4484724;31;20148;-65
2023/07/02 11:13:19;;;;;;;3.97;2.97;;;;;;;27.63;51.29;97965.84;4484833;31;20100;-65
2023/07/02 11:15:47;;;;;;;6.05;3.10;;;;;;;26.98;53.09;97974.31;4484841;31;20160;-65
2023/07/02 11:18:17;;;;;;;6.47;3.08;;;;;;;26.79;54.85;97962.41;4484442;31;20398;-65
2023/07/02 11:20:45;;;;;;;7.40;3.17;;;;;;;27.32;54.75;97965.81;4484752;31;20084;-65
2023/07/02 11:23:26;;;;;;;5.12;3.05;;;;;;;27.55;53.71;97961.81;4483358;31;20105;-65
2023/07/02 11:26:01;;;;;;;3.95;3.10;;;;;;;27.69;50.93;97961.28;4484775;31;20494;-65
2023/07/02 11:28:30;;;;;;;4.85;2.92;;;;;;;27.98;50.63;97964.28;4484616;31;20829;-65
2023/07/02 11:30:58;;;;;;;7.50;2.90;;;;;;;27.83;51.59;97972.31;4484742;31;20780;-65
2023/07/02 11:33:39;;;;;;;4.40;2.90;;;;;;;27.98;51.07;97969.66;4484659;31;20558;-65
2023/07/02 11:36:20;;;;;;;7.75;2.47;;;;;;;28.34;52.17;97966.91;4483394;32;20103;-65